Lawncrest, Pennsylvania
Current Conditions -  °F | °C
As of 2:54 AM on Wednesday 26 Nov 2014 (Local Time) from KPNE Reporting Station
Overcast Overcast  
Wind Chill: 46°   Ceiling: 8000
Heat Index: 46°   Visibility: 10mi
Dew Point: 34°   Wind: 3mph
Humidity: 63%   Direction: 60°ENE
Pressure: 30.21"   Gusts: NA
Location:  40.063°N, 75.0797°W
Report Text: KPNE 260754Z 06003KT 10SM OVC080 08/01 A3021 RMK AO2 SLP228 T00780011 $
Loading
Personal Weather Stations






























Interactive Weather Map New forecast layout! Learn more

10-Day Weather Forecast

Advertisements
Track Severe Weather on mobile